sensor_id;sensor_type;location;lat;lon;timestamp;pressure;altitude;pressure_sealevel;temperature;humidity
4346;BME280;2186;49.866;7.986;2023-01-26T00:00:55;101011.81;;;1.94;100.00
4346;BME280;2186;49.866;7.986;2023-01-26T00:03:21;101019.78;;;2.00;100.00
4346;BME280;2186;49.866;7.986;2023-01-26T00:05:48;101006.41;;;1.85;100.00
4346;BME280;2186;49.866;7.986;2023-01-26T00:08:14;101000.00;;;1.69;100.00
4346;BME280;2186;49.866;7.986;2023-01-26T00:10:41;101007.69;;;2.08;100.00
4346;BME280;2186;49.866;7.986;2023-01-26T00:13:17;101003.72;;;1.82;100.00
4346;BME280;2186;49.866;7.986;2023-01-26T00:15:44;100998.50;;;1.82;100.00
4346;BME280;2186;49.866;7.986;2023-01-26T00:18:12;100990.09;;;2.02;100.00
4346;BME280;2186;49.866;7.986;2023-01-26T00:20:38;100989.97;;;1.93;100.00
4346;BME280;2186;49.866;7.986;2023-01-26T00:23:05;100993.72;;;2.09;100.00
4346;BME280;2186;49.866;7.986;2023-01-26T00:25:31;100995.97;;;1.88;100.00
4346;BME280;2186;49.866;7.986;2023-01-26T00:27:58;100998.50;;;1.83;100.00
4346;BME280;2186;49.866;7.986;2023-01-26T00:30:24;100991.88;;;2.03;100.00
4346;BME280;2186;49.866;7.986;2023-01-26T00:32:51;101003.06;;;1.93;100.00
4346;BME280;2186;49.866;7.986;2023-01-26T00:35:17;100999.41;;;1.84;100.00
4346;BME280;2186;49.866;7.986;2023-01-26T00:37:44;101001.31;;;1.92;100.00
4346;BME280;2186;49.866;7.986;2023-01-26T00:40:10;100996.97;;;1.94;100.00
4346;BME280;2186;49.866;7.986;2023-01-26T00:42:37;100998.59;;;1.89;100.00
4346;BME280;2186;49.866;7.986;2023-01-26T00:45:05;100992.53;;;1.92;100.00
4346;BME280;2186;49.866;7.986;2023-01-26T00:47:31;100989.88;;;1.89;100.00
4346;BME280;2186;49.866;7.986;2023-01-26T00:49:58;100990.75;;;1.89;100.00
4346;BME280;2186;49.866;7.986;2023-01-26T00:52:24;100983.69;;;2.35;100.00
4346;BME280;2186;49.866;7.986;2023-01-26T00:54:51;100987.22;;;2.38;100.00
4346;BME280;2186;49.866;7.986;2023-01-26T00:57:17;100992.72;;;2.55;100.00
4346;BME280;2186;49.866;7.986;2023-01-26T00:59:43;100991.16;;;2.12;100.00
4346;BME280;2186;49.866;7.986;2023-01-26T01:02:10;100999.72;;;2.03;100.00
4346;BME280;2186;49.866;7.986;2023-01-26T01:04:36;100997.47;;;2.23;100.00
4346;BME280;2186;49.866;7.986;2023-01-26T01:07:03;100997.50;;;2.25;100.00
4346;BME280;2186;49.866;7.986;2023-01-26T01:09:29;101001.63;;;2.11;100.00
4346;BME280;2186;49.866;7.986;2023-01-26T01:11:55;100994.72;;;2.17;100.00
4346;BME280;2186;49.866;7.986;2023-01-26T01:14:22;100989.69;;;2.29;100.00
4346;BME280;2186;49.866;7.986;2023-01-26T01:16:48;100991.31;;;2.21;100.00
4346;BME280;2186;49.866;7.986;2023-01-26T01:19:17;100997.56;;;2.31;100.00
4346;BME280;2186;49.866;7.986;2023-01-26T01:21:44;100994.81;;;2.22;100.00
4346;BME280;2186;49.866;7.986;2023-01-26T01:24:11;100999.94;;;2.16;100.00
4346;BME280;2186;49.866;7.986;2023-01-26T01:26:37;100997.03;;;1.97;100.00
4346;BME280;2186;49.866;7.986;2023-01-26T01:29:05;100991.59;;;1.87;100.00
4346;BME280;2186;49.866;7.986;2023-01-26T01:31:31;100988.13;;;1.89;100.00
4346;BME280;2186;49.866;7.986;2023-01-26T01:33:58;100982.59;;;1.74;100.00
4346;BME280;2186;49.866;7.986;2023-01-26T01:36:24;100992.13;;;1.67;100.00
4346;BME280;2186;49.866;7.986;2023-01-26T01:38:51;101000.41;;;1.92;100.00
4346;BME280;2186;49.866;7.986;2023-01-26T01:41:19;100996.97;;;1.94;100.00
4346;BME280;2186;49.866;7.986;2023-01-26T01:44:09;100997.13;;;2.03;100.00
4346;BME280;2186;49.866;7.986;2023-01-26T01:46:35;101002.31;;;2.00;100.00
4346;BME280;2186;49.866;7.986;2023-01-26T01:49:07;100991.94;;;2.06;100.00
4346;BME280;2186;49.866;7.986;2023-01-26T01:51:49;100985.69;;;2.00;100.00
4346;BME280;2186;49.866;7.986;2023-01-26T01:54:21;100989.19;;;1.99;100.00
4346;BME280;2186;49.866;7.986;2023-01-26T01:56:52;100984.47;;;1.80;100.00
4346;BME280;2186;49.866;7.986;2023-01-26T01:59:21;100985.44;;;1.85;100.00
4346;BME280;2186;49.866;7.986;2023-01-26T02:01:49;100975.41;;;1.62;100.00
4346;BME280;2186;49.866;7.986;2023-01-26T02:04:18;100979.72;;;1.60;100.00
4346;BME280;2186;49.866;7.986;2023-01-26T02:06:50;100973.09;;;1.32;100.00
4346;BME280;2186;49.866;7.986;2023-01-26T02:09:24;100969.13;;;1.53;100.00
4346;BME280;2186;49.866;7.986;2023-01-26T02:12:12;100970.34;;;1.71;100.00
4346;BME280;2186;49.866;7.986;2023-01-26T02:14:40;100968.50;;;1.66;100.00
4346;BME280;2186;49.866;7.986;2023-01-26T02:17:08;100966.53;;;1.54;100.00
4346;BME280;2186;49.866;7.986;2023-01-26T02:22:26;100969.53;;;1.75;100.00
4346;BME280;2186;49.866;7.986;2023-01-26T02:24:58;100963.78;;;1.48;100.00
4346;BME280;2186;49.866;7.986;2023-01-26T02:27:29;100959.53;;;1.53;100.00
4346;BME280;2186;49.866;7.986;2023-01-26T02:29:58;100963.28;;;1.67;100.00
4346;BME280;2186;49.866;7.986;2023-01-26T02:32:25;100963.78;;;1.48;100.00
4346;BME280;2186;49.866;7.986;2023-01-26T02:34:56;100953.91;;;1.33;100.00
4346;BME280;2186;49.866;7.986;2023-01-26T02:37:23;100950.66;;;1.46;100.00
4346;BME280;2186;49.866;7.986;2023-01-26T02:39:57;100956.34;;;1.69;100.00
4346;BME280;2186;49.866;7.986;2023-01-26T02:42:25;100943.41;;;1.33;100.00
4346;BME280;2186;49.866;7.986;2023-01-26T02:45:04;100951.03;;;1.66;100.00
4346;BME280;2186;49.866;7.986;2023-01-26T02:47:31;100952.56;;;1.54;100.00
4346;BME280;2186;49.866;7.986;2023-01-26T02:49:57;100947.03;;;1.87;100.00
4346;BME280;2186;49.866;7.986;2023-01-26T02:52:27;100948.31;;;1.62;100.00
4346;BME280;2186;49.866;7.986;2023-01-26T02:54:54;100947.31;;;1.54;100.00
4346;BME280;2186;49.866;7.986;2023-01-26T02:57:40;100951.13;;;1.71;100.00
4346;BME280;2186;49.866;7.986;2023-01-26T03:02:48;100949.63;;;1.85;100.00
4346;BME280;2186;49.866;7.986;2023-01-26T03:05:16;100942.16;;;2.08;100.00
4346;BME280;2186;49.866;7.986;2023-01-26T03:07:42;100939.13;;;1.85;100.00
4346;BME280;2186;49.866;7.986;2023-01-26T03:10:13;100927.84;;;1.89;100.00
4346;BME280;2186;49.866;7.986;2023-01-26T03:12:41;100927.50;;;1.68;100.00
4346;BME280;2186;49.866;7.986;2023-01-26T03:15:08;100926.59;;;1.66;100.00
4346;BME280;2186;49.866;7.986;2023-01-26T03:18:03;100921.97;;;1.51;100.00
4346;BME280;2186;49.866;7.986;2023-01-26T03:20:49;100918.38;;;1.47;100.00
4346;BME280;2186;49.866;7.986;2023-01-26T03:23:33;100919.34;;;1.53;100.00
4346;BME280;2186;49.866;7.986;2023-01-26T03:26:18;100917.47;;;1.45;100.00
4346;BME280;2186;49.866;7.986;2023-01-26T03:29:03;100913.88;;;1.39;100.00
4346;BME280;2186;49.866;7.986;2023-01-26T03:31:29;100906.16;;;1.48;100.00
4346;BME280;2186;49.866;7.986;2023-01-26T03:33:56;100909.59;;;1.44;100.00
4346;BME280;2186;49.866;7.986;2023-01-26T03:36:22;100911.22;;;1.37;100.00
4346;BME280;2186;49.866;7.986;2023-01-26T03:38:49;100903.50;;;1.45;100.00
4346;BME280;2186;49.866;7.986;2023-01-26T03:41:15;100905.44;;;1.55;100.00
4346;BME280;2186;49.866;7.986;2023-01-26T03:44:00;100906.00;;;1.89;100.00
4346;BME280;2186;49.866;7.986;2023-01-26T03:46:45;100901.34;;;1.71;100.00
4346;BME280;2186;49.866;7.986;2023-01-26T03:49:29;100896.06;;;1.69;100.00
4346;BME280;2186;49.866;7.986;2023-01-26T03:52:14;100901.88;;;1.52;100.00
4346;BME280;2186;49.866;7.986;2023-01-26T03:54:59;100893.47;;;1.71;100.00
4346;BME280;2186;49.866;7.986;2023-01-26T03:57:44;100893.81;;;1.41;100.00
4346;BME280;2186;49.866;7.986;2023-01-26T04:00:11;100889.72;;;1.57;100.00
4346;BME280;2186;49.866;7.986;2023-01-26T04:02:40;100884.72;;;1.69;100.00
4346;BME280;2186;49.866;7.986;2023-01-26T04:05:26;100883.59;;;1.55;100.00
4346;BME280;2186;49.866;7.986;2023-01-26T04:08:11;100885.88;;;1.36;100.00
4346;BME280;2186;49.866;7.986;2023-01-26T04:10:50;100883.72;;;1.64;100.00
4346;BME280;2186;49.866;7.986;2023-01-26T04:13:21;100871.34;;;1.54;100.00
4346;BME280;2186;49.866;7.986;2023-01-26T04:16:08;100875.50;;;1.42;100.00
4346;BME280;2186;49.866;7.986;2023-01-26T04:18:54;100868.53;;;1.43;100.00
4346;BME280;2186;49.866;7.986;2023-01-26T04:21:39;100874.06;;;1.60;100.00
4346;BME280;2186;49.866;7.986;2023-01-26T04:24:05;100869.75;;;1.63;100.00
4346;BME280;2186;49.866;7.986;2023-01-26T04:26:35;100868.72;;;1.52;100.00
4346;BME280;2186;49.866;7.986;2023-01-26T04:29:04;100855.56;;;1.51;100.00
4346;BME280;2186;49.866;7.986;2023-01-26T04:31:31;100865.13;;;1.48;100.00
4346;BME280;2186;49.866;7.986;2023-01-26T04:34:02;100856.41;;;1.49;100.00
4346;BME280;2186;49.866;7.986;2023-01-26T04:36:29;100861.38;;;1.34;100.00
4346;BME280;2186;49.866;7.986;2023-01-26T04:38:56;100865.22;;;1.53;100.00
4346;BME280;2186;49.866;7.986;2023-01-26T04:41:22;100861.00;;;1.63;100.00
4346;BME280;2186;49.866;7.986;2023-01-26T04:43:49;100860.06;;;1.58;100.00
4346;BME280;2186;49.866;7.986;2023-01-26T04:46:15;100851.72;;;1.80;100.00
4346;BME280;2186;49.866;7.986;2023-01-26T04:48:42;100852.63;;;1.84;100.00
4346;BME280;2186;49.866;7.986;2023-01-26T04:51:15;100850.69;;;1.72;100.00
4346;BME280;2186;49.866;7.986;2023-01-26T04:53:41;100852.94;;;1.51;100.00
4346;BME280;2186;49.866;7.986;2023-01-26T04:56:28;100855.91;;;1.70;100.00
4346;BME280;2186;49.866;7.986;2023-01-26T04:58:58;100851.09;;;1.45;100.00
4346;BME280;2186;49.866;7.986;2023-01-26T05:01:25;100851.00;;;1.37;100.00
4346;BME280;2186;49.866;7.986;2023-01-26T05:03:51;100840.41;;;1.33;100.00
4346;BME280;2186;49.866;7.986;2023-01-26T05:06:18;100841.56;;;1.50;100.00
4346;BME280;2186;49.866;7.986;2023-01-26T05:08:45;100843.19;;;1.42;100.00
4346;BME280;2186;49.866;7.986;2023-01-26T05:11:15;100850.19;;;1.41;100.00
4346;BME280;2186;49.866;7.986;2023-01-26T05:13:41;100854.81;;;1.58;100.00
4346;BME280;2186;49.866;7.986;2023-01-26T05:16:08;100852.88;;;1.46;100.00
4346;BME280;2186;49.866;7.986;2023-01-26T05:18:34;100846.78;;;1.48;100.00
4346;BME280;2186;49.866;7.986;2023-01-26T05:21:01;100846.69;;;1.42;100.00
4346;BME280;2186;49.866;7.986;2023-01-26T05:23:27;100845.88;;;1.45;100.00
4346;BME280;2186;49.866;7.986;2023-01-26T05:25:54;100847.91;;;1.63;100.00
4346;BME280;2186;49.866;7.986;2023-01-26T05:28:20;100847.97;;;1.66;100.00
4346;BME280;2186;49.866;7.986;2023-01-26T05:30:47;100840.56;;;1.95;100.00
4346;BME280;2186;49.866;7.986;2023-01-26T05:33:13;100849.34;;;1.98;100.00
4346;BME280;2186;49.866;7.986;2023-01-26T05:35:41;100853.59;;;1.92;100.00
4346;BME280;2186;49.866;7.986;2023-01-26T05:38:08;100849.66;;;1.64;100.00
4346;BME280;2186;49.866;7.986;2023-01-26T05:40:34;100853.25;;;1.67;100.00
4346;BME280;2186;49.866;7.986;2023-01-26T05:43:01;100849.06;;;1.78;100.00
4346;BME280;2186;49.866;7.986;2023-01-26T05:45:27;100854.78;;;1.56;100.00
4346;BME280;2186;49.866;7.986;2023-01-26T05:47:53;100853.63;;;1.39;100.00
4346;BME280;2186;49.866;7.986;2023-01-26T05:50:20;100853.94;;;1.57;100.00
4346;BME280;2186;49.866;7.986;2023-01-26T05:52:46;100853.66;;;1.40;100.00
4346;BME280;2186;49.866;7.986;2023-01-26T05:55:13;100855.56;;;1.51;100.00
4346;BME280;2186;49.866;7.986;2023-01-26T05:57:40;100848.25;;;1.31;100.00
4346;BME280;2186;49.866;7.986;2023-01-26T06:00:07;100844.03;;;1.39;100.00
4346;BME280;2186;49.866;7.986;2023-01-26T06:02:34;100846.66;;;1.39;100.00
4346;BME280;2186;49.866;7.986;2023-01-26T06:05:01;100853.72;;;1.45;100.00
4346;BME280;2186;49.866;7.986;2023-01-26T06:07:27;100851.16;;;1.48;100.00
4346;BME280;2186;49.866;7.986;2023-01-26T06:09:54;100849.16;;;1.33;100.00
4346;BME280;2186;49.866;7.986;2023-01-26T06:12:21;100850.16;;;1.40;100.00
4346;BME280;2186;49.866;7.986;2023-01-26T06:14:48;100851.16;;;1.48;100.00
4346;BME280;2186;49.866;7.986;2023-01-26T06:17:15;100855.56;;;1.51;100.00
4346;BME280;2186;49.866;7.986;2023-01-26T06:19:42;100858.28;;;1.55;100.00
4346;BME280;2186;49.866;7.986;2023-01-26T06:22:10;100843.50;;;1.60;100.00
4346;BME280;2186;49.866;7.986;2023-01-26T06:24:37;100849.59;;;1.58;100.00
4346;BME280;2186;49.866;7.986;2023-01-26T06:27:06;100849.50;;;1.53;100.00
4346;BME280;2186;49.866;7.986;2023-01-26T06:29:33;100860.91;;;1.57;100.00
4346;BME280;2186;49.866;7.986;2023-01-26T06:32:00;100859.97;;;1.52;100.00
4346;BME280;2186;49.866;7.986;2023-01-26T06:34:26;100854.66;;;1.48;100.00
4346;BME280;2186;49.866;7.986;2023-01-26T06:36:53;100852.84;;;1.44;100.00
4346;BME280;2186;49.866;7.986;2023-01-26T06:39:19;100861.59;;;1.46;100.00
4346;BME280;2186;49.866;7.986;2023-01-26T06:41:46;100858.28;;;1.55;100.00
4346;BME280;2186;49.866;7.986;2023-01-26T06:44:12;100863.38;;;2.00;100.00
4346;BME280;2186;49.866;7.986;2023-01-26T06:46:39;100862.47;;;1.45;100.00
4346;BME280;2186;49.866;7.986;2023-01-26T06:49:05;100864.97;;;1.38;100.00
4346;BME280;2186;49.866;7.986;2023-01-26T06:54:04;100871.00;;;1.35;99.83
4346;BME280;2186;49.866;7.986;2023-01-26T06:56:34;100871.31;;;1.52;99.92
4346;BME280;2186;49.866;7.986;2023-01-26T06:59:00;100866.09;;;1.52;99.57
4346;BME280;2186;49.866;7.986;2023-01-26T07:01:32;100878.16;;;1.44;99.91
4346;BME280;2186;49.866;7.986;2023-01-26T07:04:00;100879.84;;;1.40;99.13
4346;BME280;2186;49.866;7.986;2023-01-26T07:06:26;100883.94;;;1.26;100.00
4346;BME280;2186;49.866;7.986;2023-01-26T07:08:53;100887.81;;;1.48;99.46
4346;BME280;2186;49.866;7.986;2023-01-26T07:11:19;100890.28;;;1.37;99.94
4346;BME280;2186;49.866;7.986;2023-01-26T07:13:47;100888.97;;;1.15;99.68
4346;BME280;2186;49.866;7.986;2023-01-26T07:16:15;100896.78;;;1.12;100.00
4346;BME280;2186;49.866;7.986;2023-01-26T07:18:42;100892.47;;;1.16;100.00
4346;BME280;2186;49.866;7.986;2023-01-26T07:21:10;100901.84;;;1.05;100.00
4346;BME280;2186;49.866;7.986;2023-01-26T07:23:37;100894.94;;;1.08;100.00
4346;BME280;2186;49.866;7.986;2023-01-26T07:26:04;100906.81;;;1.36;99.80
4346;BME280;2186;49.866;7.986;2023-01-26T07:28:31;100908.00;;;1.52;99.02
4346;BME280;2186;49.866;7.986;2023-01-26T07:31:00;100902.50;;;1.38;98.78
4346;BME280;2186;49.866;7.986;2023-01-26T07:33:27;100910.38;;;1.38;99.61
4346;BME280;2186;49.866;7.986;2023-01-26T07:35:55;100912.19;;;1.44;98.92
4346;BME280;2186;49.866;7.986;2023-01-26T07:38:22;100906.19;;;1.03;99.84
4346;BME280;2186;49.866;7.986;2023-01-26T07:40:49;100909.28;;;0.83;100.00
4346;BME280;2186;49.866;7.986;2023-01-26T07:43:16;100916.28;;;0.84;100.00
4346;BME280;2186;49.866;7.986;2023-01-26T07:45:46;100918.72;;;0.77;100.00
4346;BME280;2186;49.866;7.986;2023-01-26T07:48:13;100924.22;;;0.89;100.00
4346;BME280;2186;49.866;7.986;2023-01-26T07:50:40;100921.22;;;1.13;100.00
4346;BME280;2186;49.866;7.986;2023-01-26T07:53:07;100923.09;;;1.20;99.13
4346;BME280;2186;49.866;7.986;2023-01-26T07:55:34;100934.94;;;1.01;99.64
4346;BME280;2186;49.866;7.986;2023-01-26T07:58:01;100936.50;;;0.93;99.66
4346;BME280;2186;49.866;7.986;2023-01-26T08:00:27;100933.22;;;1.02;100.00
4346;BME280;2186;49.866;7.986;2023-01-26T08:02:54;100928.88;;;1.04;99.22
4346;BME280;2186;49.866;7.986;2023-01-26T08:05:20;100919.47;;;1.12;98.74
4346;BME280;2186;49.866;7.986;2023-01-26T08:07:47;100916.19;;;1.24;98.88
4346;BME280;2186;49.866;7.986;2023-01-26T08:10:13;100923.88;;;1.16;98.94
4346;BME280;2186;49.866;7.986;2023-01-26T08:12:40;100922.00;;;1.09;98.94
4346;BME280;2186;49.866;7.986;2023-01-26T08:15:07;100920.53;;;1.23;98.52
4346;BME280;2186;49.866;7.986;2023-01-26T08:17:33;100921.59;;;1.33;98.14
4346;BME280;2186;49.866;7.986;2023-01-26T08:20:00;100924.13;;;1.28;98.13
4346;BME280;2186;49.866;7.986;2023-01-26T08:22:26;100923.56;;;0.99;97.59
4346;BME280;2186;49.866;7.986;2023-01-26T08:24:52;100930.69;;;1.08;99.25
4346;BME280;2186;49.866;7.986;2023-01-26T08:27:19;100923.88;;;1.16;99.44
4346;BME280;2186;49.866;7.986;2023-01-26T08:29:45;100932.91;;;1.32;98.27
4346;BME280;2186;49.866;7.986;2023-01-26T08:32:11;100926.72;;;1.27;98.89
4346;BME280;2186;49.866;7.986;2023-01-26T08:34:38;100932.00;;;1.28;98.99
4346;BME280;2186;49.866;7.986;2023-01-26T08:37:04;100937.22;;;1.28;97.42
4346;BME280;2186;49.866;7.986;2023-01-26T08:39:31;100930.19;;;1.26;97.94
4346;BME280;2186;49.866;7.986;2023-01-26T08:41:57;100942.72;;;0.97;97.05
4346;BME280;2186;49.866;7.986;2023-01-26T08:44:23;100947.41;;;1.13;96.59
4346;BME280;2186;49.866;7.986;2023-01-26T08:46:50;100939.09;;;0.92;95.92
4346;BME280;2186;49.866;7.986;2023-01-26T08:49:16;100938.13;;;0.86;96.72
4346;BME280;2186;49.866;7.986;2023-01-26T08:51:43;100928.22;;;1.14;97.09
4346;BME280;2186;49.866;7.986;2023-01-26T08:54:09;100933.63;;;1.23;96.81
4346;BME280;2186;49.866;7.986;2023-01-26T08:56:35;100937.25;;;0.86;97.13
4346;BME280;2186;49.866;7.986;2023-01-26T08:59:02;100938.66;;;1.12;98.02
4346;BME280;2186;49.866;7.986;2023-01-26T09:01:28;100941.88;;;0.99;97.29
4346;BME280;2186;49.866;7.986;2023-01-26T09:03:55;100941.00;;;0.99;98.18
4346;BME280;2186;49.866;7.986;2023-01-26T09:06:21;100942.84;;;1.04;97.82
4346;BME280;2186;49.866;7.986;2023-01-26T09:08:48;100944.47;;;0.98;96.76
4346;BME280;2186;49.866;7.986;2023-01-26T09:11:14;100930.72;;;1.09;97.03
4346;BME280;2186;49.866;7.986;2023-01-26T09:13:41;100951.81;;;0.75;97.63
4346;BME280;2186;49.866;7.986;2023-01-26T09:16:14;100941.44;;;0.79;97.37
4346;BME280;2186;49.866;7.986;2023-01-26T09:18:42;100925.31;;;0.99;97.20
4346;BME280;2186;49.866;7.986;2023-01-26T09:21:09;100935.88;;;1.05;96.24
4346;BME280;2186;49.866;7.986;2023-01-26T09:23:35;100933.63;;;1.23;96.22
4346;BME280;2186;49.866;7.986;2023-01-26T09:26:03;100930.91;;;1.18;96.04
4346;BME280;2186;49.866;7.986;2023-01-26T09:28:29;100939.00;;;1.29;96.49
4346;BME280;2186;49.866;7.986;2023-01-26T09:30:56;100947.84;;;1.36;96.76
4346;BME280;2186;49.866;7.986;2023-01-26T09:33:22;100945.72;;;1.16;95.84
4346;BME280;2186;49.866;7.986;2023-01-26T09:35:50;100943.84;;;1.55;96.26
4346;BME280;2186;49.866;7.986;2023-01-26T09:38:16;100951.09;;;1.69;95.59
4346;BME280;2186;49.866;7.986;2023-01-26T09:43:52;100950.03;;;1.60;95.56
4346;BME280;2186;49.866;7.986;2023-01-26T09:46:26;100949.31;;;1.67;95.16
4346;BME280;2186;49.866;7.986;2023-01-26T09:49:14;100952.47;;;1.51;94.47
4346;BME280;2186;49.866;7.986;2023-01-26T09:52:08;100945.38;;;1.43;96.57
4346;BME280;2186;49.866;7.986;2023-01-26T09:54:57;100952.31;;;1.41;96.79
4346;BME280;2186;49.866;7.986;2023-01-26T09:57:31;100950.88;;;1.59;95.60
4346;BME280;2186;49.866;7.986;2023-01-26T10:00:05;100950.72;;;1.49;95.38
4346;BME280;2186;49.866;7.986;2023-01-26T10:05:51;100955.31;;;1.16;96.27
4346;BME280;2186;49.866;7.986;2023-01-26T10:08:20;100945.78;;;1.65;94.78
4346;BME280;2186;49.866;7.986;2023-01-26T10:11:28;100947.44;;;1.61;94.86
4346;BME280;2186;49.866;7.986;2023-01-26T10:13:56;100943.19;;;1.66;93.61
4346;BME280;2186;49.866;7.986;2023-01-26T10:16:24;100939.19;;;1.38;93.72
4346;BME280;2186;49.866;7.986;2023-01-26T10:19:00;100939.28;;;1.44;94.64
4346;BME280;2186;49.866;7.986;2023-01-26T10:21:32;100931.78;;;1.17;94.58
4346;BME280;2186;49.866;7.986;2023-01-26T10:24:02;100934.78;;;0.94;96.23
4346;BME280;2186;49.866;7.986;2023-01-26T10:26:33;100937.28;;;0.87;95.86
4346;BME280;2186;49.866;7.986;2023-01-26T10:28:59;100927.78;;;0.93;95.60
4346;BME280;2186;49.866;7.986;2023-01-26T10:31:29;100929.66;;;0.98;95.87
4346;BME280;2186;49.866;7.986;2023-01-26T10:34:08;100925.72;;;1.20;95.36
4346;BME280;2186;49.866;7.986;2023-01-26T10:36:35;100926.94;;;1.37;94.84
4346;BME280;2186;49.866;7.986;2023-01-26T10:39:09;100923.72;;;1.52;95.82
4346;BME280;2186;49.866;7.986;2023-01-26T10:41:36;100917.06;;;1.71;95.56
4346;BME280;2186;49.866;7.986;2023-01-26T10:46:37;100918.97;;;1.80;95.37
4346;BME280;2186;49.866;7.986;2023-01-26T10:51:34;100918.38;;;1.97;94.42
4346;BME280;2186;49.866;7.986;2023-01-26T10:56:52;100911.41;;;1.99;95.49
4346;BME280;2186;49.866;7.986;2023-01-26T10:59:25;100911.91;;;1.77;96.16
4346;BME280;2186;49.866;7.986;2023-01-26T11:04:39;100906.38;;;2.12;94.72
4346;BME280;2186;49.866;7.986;2023-01-26T11:07:26;100911.34;;;1.95;94.30
4346;BME280;2186;49.866;7.986;2023-01-26T11:09:54;100901.28;;;2.22;93.72
4346;BME280;2186;49.866;7.986;2023-01-26T11:12:23;100891.53;;;2.12;92.88
4346;BME280;2186;49.866;7.986;2023-01-26T11:15:05;100888.47;;;1.86;93.37
4346;BME280;2186;49.866;7.986;2023-01-26T11:18:01;100876.31;;;1.91;94.38
4346;BME280;2186;49.866;7.986;2023-01-26T11:23:44;100879.66;;;1.81;94.78
4346;BME280;2186;49.866;7.986;2023-01-26T11:40:47;100868.88;;;2.19;92.56
4346;BME280;2186;49.866;7.986;2023-01-26T11:51:53;100859.13;;;2.08;93.63
4346;BME280;2186;49.866;7.986;2023-01-26T12:00:17;100852.00;;;1.45;92.64
4346;BME280;2186;49.866;7.986;2023-01-26T12:03:04;100849.28;;;1.92;94.01
4346;BME280;2186;49.866;7.986;2023-01-26T12:05:41;100845.63;;;1.83;92.68
4346;BME280;2186;49.866;7.986;2023-01-26T12:08:24;100836.44;;;2.11;92.02
4346;BME280;2186;49.866;7.986;2023-01-26T12:11:01;100829.22;;;1.94;91.92
4346;BME280;2186;49.866;7.986;2023-01-26T12:14:01;100835.22;;;1.89;92.04
4346;BME280;2186;49.866;7.986;2023-01-26T12:19:29;100822.22;;;1.95;91.92
4346;BME280;2186;49.866;7.986;2023-01-26T12:22:07;100820.56;;;2.03;92.82
4346;BME280;2186;49.866;7.986;2023-01-26T12:24:44;100802.41;;;2.15;91.05
4346;BME280;2186;49.866;7.986;2023-01-26T12:27:42;100805.50;;;1.88;91.34
4346;BME280;2186;49.866;7.986;2023-01-26T12:32:47;100803.44;;;1.66;93.30
4346;BME280;2186;49.866;7.986;2023-01-26T12:35:26;100804.63;;;1.86;93.08
4346;BME280;2186;49.866;7.986;2023-01-26T12:38:02;100796.53;;;1.72;93.88
4346;BME280;2186;49.866;7.986;2023-01-26T12:44:14;100786.97;;;1.76;94.40
4346;BME280;2186;49.866;7.986;2023-01-26T12:46:49;100783.59;;;1.82;92.45
4346;BME280;2186;49.866;7.986;2023-01-26T12:49:21;100785.84;;;1.59;92.33
4346;BME280;2186;49.866;7.986;2023-01-26T12:51:54;100784.09;;;1.58;93.59
4346;BME280;2186;49.866;7.986;2023-01-26T12:54:32;100778.88;;;1.59;94.64
4346;BME280;2186;49.866;7.986;2023-01-26T12:57:04;100784.09;;;1.59;95.71
4346;BME280;2186;49.866;7.986;2023-01-26T12:59:37;100780.59;;;1.59;94.74
4346;BME280;2186;49.866;7.986;2023-01-26T13:04:42;100787.44;;;1.51;94.56
4346;BME280;2186;49.866;7.986;2023-01-26T13:07:33;100769.25;;;1.58;93.99
4346;BME280;2186;49.866;7.986;2023-01-26T13:12:56;100773.63;;;1.59;95.10
4346;BME280;2186;49.866;7.986;2023-01-26T13:15:28;100786.75;;;1.61;95.61
4346;BME280;2186;49.866;7.986;2023-01-26T13:17:59;100779.13;;;1.23;97.19
4346;BME280;2186;49.866;7.986;2023-01-26T13:22:55;100779.03;;;1.15;98.13
4346;BME280;2186;49.866;7.986;2023-01-26T13:25:28;100777.47;;;1.25;98.80
4346;BME280;2186;49.866;7.986;2023-01-26T13:32:53;100780.22;;;1.36;98.86
4346;BME280;2186;49.866;7.986;2023-01-26T13:35:26;100775.44;;;1.63;97.92
4346;BME280;2186;49.866;7.986;2023-01-26T13:38:08;100773.56;;;1.55;97.21
4346;BME280;2186;49.866;7.986;2023-01-26T13:40:40;100772.13;;;1.75;97.18
4346;BME280;2186;49.866;7.986;2023-01-26T13:43:31;100777.56;;;1.89;97.21
4346;BME280;2186;49.866;7.986;2023-01-26T13:48:51;100773.41;;;1.45;97.59
4346;BME280;2186;49.866;7.986;2023-01-26T13:51:26;100771.63;;;1.43;98.62
4346;BME280;2186;49.866;7.986;2023-01-26T13:54:03;100774.25;;;1.43;98.59
4346;BME280;2186;49.866;7.986;2023-01-26T13:56:38;100780.63;;;1.60;98.68
4346;BME280;2186;49.866;7.986;2023-01-26T13:59:15;100774.72;;;1.73;97.35
4346;BME280;2186;49.866;7.986;2023-01-26T14:01:47;100777.66;;;1.93;98.21
4346;BME280;2186;49.866;7.986;2023-01-26T14:06:54;100787.06;;;1.79;98.17
4346;BME280;2186;49.866;7.986;2023-01-26T14:09:22;100791.31;;;1.72;97.88
4346;BME280;2186;49.866;7.986;2023-01-26T14:11:56;100783.69;;;1.89;98.29
4346;BME280;2186;49.866;7.986;2023-01-26T14:14:25;100786.22;;;1.83;97.43
4346;BME280;2186;49.866;7.986;2023-01-26T14:16:53;100795.19;;;1.99;98.20
4346;BME280;2186;49.866;7.986;2023-01-26T14:19:22;100797.81;;;2.00;97.18
4346;BME280;2186;49.866;7.986;2023-01-26T14:21:51;100795.25;;;2.05;96.89
4346;BME280;2186;49.866;7.986;2023-01-26T14:24:29;100803.72;;;1.84;97.78
4346;BME280;2186;49.866;7.986;2023-01-26T14:26:56;100800.22;;;1.84;98.44
4346;BME280;2186;49.866;7.986;2023-01-26T14:29:25;100805.50;;;1.87;97.78
4346;BME280;2186;49.866;7.986;2023-01-26T14:31:53;100811.56;;;1.84;98.09
4346;BME280;2186;49.866;7.986;2023-01-26T14:34:23;100810.50;;;1.71;98.34
4346;BME280;2186;49.866;7.986;2023-01-26T14:37:09;100804.63;;;1.88;99.32
4346;BME280;2186;49.866;7.986;2023-01-26T14:39:38;100820.28;;;1.83;98.62
4346;BME280;2186;49.866;7.986;2023-01-26T14:42:04;100811.78;;;1.98;99.95
4346;BME280;2186;49.866;7.986;2023-01-26T14:44:31;100819.66;;;1.99;98.55
4346;BME280;2186;49.866;7.986;2023-01-26T14:47:19;100809.88;;;1.89;98.86
4346;BME280;2186;49.866;7.986;2023-01-26T14:50:02;100815.28;;;1.98;97.69
4346;BME280;2186;49.866;7.986;2023-01-26T14:52:32;100806.00;;;2.22;97.51
4346;BME280;2186;49.866;7.986;2023-01-26T14:55:22;100809.84;;;1.86;97.72
4346;BME280;2186;49.866;7.986;2023-01-26T14:57:50;100817.50;;;1.72;98.74